createdAt,value
2022-08-16T00:01:04.075Z,4.50
2022-08-16T00:03:37.713Z,5.43
2022-08-16T00:06:04.612Z,4.60
2022-08-16T00:08:36.875Z,5.03
2022-08-16T00:11:15.235Z,4.60
2022-08-16T00:13:53.631Z,4.88
2022-08-16T00:17:05.812Z,4.90
2022-08-16T00:19:19.765Z,5.63
2022-08-16T00:21:53.360Z,5.40
2022-08-16T00:24:32.505Z,4.97
2022-08-16T00:27:01.229Z,5.80
2022-08-16T00:29:29.990Z,4.18
2022-08-16T00:31:59.763Z,5.18
2022-08-16T00:34:44.087Z,5.05
2022-08-16T00:37:17.082Z,4.95
2022-08-16T00:39:46.948Z,4.13
2022-08-16T00:42:14.643Z,5.07
2022-08-16T00:45:06.506Z,3.90
2022-08-16T00:47:37.781Z,5.15
2022-08-16T00:50:11.466Z,4.03
2022-08-16T00:52:50.475Z,5.15
2022-08-16T00:55:20.691Z,4.72
2022-08-16T00:57:59.482Z,4.13
2022-08-16T01:00:30.182Z,5.70
2022-08-16T01:02:58.848Z,5.28
2022-08-16T01:05:25.731Z,4.53
2022-08-16T01:07:53.734Z,4.25
2022-08-16T01:10:32.531Z,4.78
2022-08-16T01:13:15.828Z,4.32
2022-08-16T01:15:47.929Z,4.53
2022-08-16T01:18:39.332Z,5.47
2022-08-16T01:21:39.908Z,6.07
2022-08-16T01:24:53.722Z,4.95
2022-08-16T01:27:26.205Z,5.88
2022-08-16T01:30:19.488Z,5.53
2022-08-16T01:33:01.661Z,5.60
2022-08-16T01:35:56.749Z,5.78
2022-08-16T01:38:28.717Z,5.95
2022-08-16T01:41:02.342Z,6.75
2022-08-16T01:43:31.411Z,7.10
2022-08-16T01:46:30.206Z,6.35
2022-08-16T01:48:48.426Z,6.50
2022-08-16T01:51:17.365Z,6.65
2022-08-16T01:53:44.096Z,6.00
2022-08-16T01:56:23.529Z,6.35
2022-08-16T01:58:54.765Z,5.28
2022-08-16T02:01:22.498Z,6.60
2022-08-16T02:03:50.581Z,6.15
2022-08-16T02:06:26.070Z,6.10
2022-08-16T02:09:01.924Z,5.75
2022-08-16T02:11:47.391Z,5.30
2022-08-16T02:14:18.262Z,6.15
2022-08-16T02:16:48.721Z,6.03
2022-08-16T02:19:17.620Z,5.82
2022-08-16T02:22:09.206Z,5.53
2022-08-16T02:24:41.242Z,6.28
2022-08-16T02:27:09.700Z,6.60
2022-08-16T02:29:36.557Z,5.00
2022-08-16T02:32:49.058Z,5.90
2022-08-16T02:34:51.350Z,6.63
2022-08-16T02:37:23.160Z,5.60
2022-08-16T02:39:54.165Z,5.45
2022-08-16T02:42:21.180Z,6.80
2022-08-16T02:44:48.948Z,5.93
2022-08-16T02:47:25.553Z,6.10
2022-08-16T02:50:52.462Z,5.53
2022-08-16T02:52:39.584Z,6.13
2022-08-16T02:55:11.983Z,5.85
2022-08-16T02:57:54.584Z,5.80
2022-08-16T03:00:33.957Z,6.55
2022-08-16T03:03:03.389Z,5.65
2022-08-16T03:05:31.582Z,6.38
2022-08-16T03:07:58.650Z,6.18
2022-08-16T03:10:33.430Z,6.40
2022-08-16T03:13:01.008Z,6.03
2022-08-16T03:15:28.909Z,6.15
2022-08-16T03:17:56.519Z,5.57
2022-08-16T03:20:32.319Z,6.20
2022-08-16T03:22:59.706Z,6.90
2022-08-16T03:25:40.885Z,5.57
2022-08-16T03:28:11.117Z,6.93
2022-08-16T03:30:38.172Z,6.00
2022-08-16T03:33:05.574Z,6.40
2022-08-16T03:35:36.706Z,6.22
2022-08-16T03:38:32.572Z,6.75
2022-08-16T03:40:58.586Z,6.43
2022-08-16T03:43:51.968Z,7.15
2022-08-16T03:46:13.522Z,7.15
2022-08-16T03:49:00.285Z,7.13
2022-08-16T03:51:28.756Z,6.15
2022-08-16T03:53:57.699Z,6.63
2022-08-16T03:56:28.203Z,6.32
2022-08-16T03:58:57.590Z,6.38
2022-08-16T04:01:25.140Z,6.78
2022-08-16T04:03:56.152Z,6.57
2022-08-16T04:06:22.832Z,6.70
2022-08-16T04:08:49.413Z,6.90
2022-08-16T04:11:16.461Z,7.00
2022-08-16T04:14:00.776Z,6.72
2022-08-16T04:16:32.339Z,6.30
2022-08-16T04:19:01.938Z,7.43
2022-08-16T04:21:31.977Z,5.88
2022-08-16T04:23:59.437Z,7.82
2022-08-16T04:26:30.816Z,7.72
2022-08-16T04:29:15.041Z,6.60
2022-08-16T04:31:45.121Z,6.93
2022-08-16T04:34:12.367Z,7.25
2022-08-16T04:36:39.648Z,6.90
2022-08-16T04:39:06.412Z,6.60
2022-08-16T04:41:37.602Z,6.03
2022-08-16T04:44:32.983Z,6.93
2022-08-16T04:47:00.560Z,7.25
2022-08-16T04:49:43.958Z,7.07
2022-08-16T04:52:34.009Z,6.68
2022-08-16T04:54:59.988Z,8.35
2022-08-16T04:57:29.938Z,7.03
2022-08-16T04:59:57.234Z,6.80
2022-08-16T05:02:42.201Z,7.18
2022-08-16T05:05:17.615Z,6.90
2022-08-16T05:07:59.416Z,7.78
2022-08-16T05:10:28.157Z,7.47
2022-08-16T05:12:57.386Z,7.03
2022-08-16T05:15:24.561Z,6.63
2022-08-16T05:17:58.796Z,7.10
2022-08-16T05:20:38.672Z,7.43
2022-08-16T05:23:13.655Z,6.85
2022-08-16T05:25:48.201Z,7.10
2022-08-16T05:28:16.826Z,6.60
2022-08-16T05:30:43.535Z,6.97
2022-08-16T05:33:16.182Z,6.93
2022-08-16T05:35:43.915Z,7.50
2022-08-16T05:38:32.492Z,7.30
2022-08-16T05:41:00.529Z,7.22
2022-08-16T05:43:32.279Z,8.25
2022-08-16T05:46:30.300Z,6.63
2022-08-16T05:49:05.666Z,7.40
2022-08-16T05:54:11.356Z,7.20
2022-08-16T05:56:39.367Z,5.97
2022-08-16T05:59:07.072Z,7.07
2022-08-16T06:01:38.248Z,6.18
2022-08-16T06:04:13.272Z,6.22
2022-08-16T06:06:41.879Z,6.90
2022-08-16T06:09:15.727Z,6.85
2022-08-16T06:11:45.291Z,6.68
2022-08-16T06:14:12.008Z,6.70
2022-08-16T06:16:38.710Z,6.72
2022-08-16T06:19:05.421Z,6.85
2022-08-16T06:21:36.960Z,7.75
2022-08-16T06:24:52.849Z,7.60
2022-08-16T06:26:58.091Z,7.03
2022-08-16T06:29:25.156Z,6.88
2022-08-16T06:31:51.839Z,7.10
2022-08-16T06:34:55.134Z,7.22
2022-08-16T06:37:05.783Z,8.63
2022-08-16T06:39:34.811Z,9.30
2022-08-16T06:42:18.465Z,9.02
2022-08-16T06:44:46.489Z,9.73
2022-08-16T06:47:17.053Z,9.48
2022-08-16T06:49:52.530Z,9.55
2022-08-16T06:52:57.632Z,9.95
2022-08-16T06:55:07.794Z,9.15
2022-08-16T06:57:40.385Z,10.07
2022-08-16T07:00:24.321Z,11.70
2022-08-16T07:02:53.628Z,9.68
2022-08-16T07:05:27.284Z,10.35
2022-08-16T07:08:10.595Z,11.23
2022-08-16T07:10:38.700Z,10.40
2022-08-16T07:13:11.552Z,9.65
2022-08-16T07:15:50.365Z,11.05
2022-08-16T07:18:20.248Z,11.93
2022-08-16T07:20:48.437Z,12.82
2022-08-16T07:23:16.153Z,12.45
2022-08-16T07:25:43.294Z,14.15
2022-08-16T07:28:20.449Z,16.73
2022-08-16T07:30:48.342Z,14.93
2022-08-16T07:33:41.281Z,16.88
2022-08-16T07:36:06.280Z,16.60
2022-08-16T07:38:34.357Z,16.83
2022-08-16T07:41:01.937Z,15.73
2022-08-16T07:43:37.014Z,17.70
2022-08-16T07:46:07.340Z,18.27
2022-08-16T07:48:55.264Z,18.80
2022-08-16T07:51:31.695Z,17.23
2022-08-16T07:54:02.438Z,16.85
2022-08-16T07:56:37.512Z,16.60
2022-08-16T07:59:05.429Z,17.25
2022-08-16T08:01:32.217Z,13.57
2022-08-16T08:03:59.565Z,10.23
2022-08-16T08:06:30.649Z,12.57
2022-08-16T08:08:59.404Z,15.43
2022-08-16T08:11:28.189Z,14.70
2022-08-16T08:13:57.603Z,15.82
2022-08-16T08:16:31.152Z,12.23
2022-08-16T08:19:00.997Z,10.98
2022-08-16T08:21:58.253Z,7.93
2022-08-16T08:24:15.721Z,7.80
2022-08-16T08:26:43.537Z,8.32
2022-08-16T08:29:12.029Z,8.63
2022-08-16T08:31:42.370Z,8.45
2022-08-16T08:34:09.152Z,9.00
2022-08-16T08:36:40.012Z,8.20
2022-08-16T08:39:12.647Z,7.93
2022-08-16T08:41:42.459Z,7.90
2022-08-16T08:44:29.292Z,6.90
2022-08-16T08:47:00.554Z,8.32
2022-08-16T08:49:45.982Z,12.82
2022-08-16T08:52:34.623Z,12.05
2022-08-16T08:55:10.478Z,10.07
2022-08-16T08:57:40.657Z,8.40
2022-08-16T09:00:13.637Z,6.78
2022-08-16T09:02:50.240Z,7.22
2022-08-16T09:05:20.233Z,7.47
2022-08-16T09:08:00.728Z,6.55
2022-08-16T09:10:30.347Z,9.38
2022-08-16T09:12:58.382Z,8.50
2022-08-16T09:15:32.847Z,11.05
2022-08-16T09:18:27.095Z,8.35
2022-08-16T09:20:59.582Z,8.77
2022-08-16T09:23:28.165Z,6.72
2022-08-16T09:25:55.030Z,6.65
2022-08-16T09:28:38.074Z,6.90
2022-08-16T09:31:08.438Z,6.95
2022-08-16T09:33:39.284Z,7.18
2022-08-16T09:36:12.216Z,7.18
2022-08-16T09:38:54.138Z,8.40
2022-08-16T09:41:26.916Z,8.55
2022-08-16T09:43:59.976Z,8.70
2022-08-16T09:46:33.468Z,9.30
2022-08-16T09:49:14.821Z,7.88
2022-08-16T09:51:42.311Z,7.28
2022-08-16T09:54:16.766Z,8.13
2022-08-16T09:56:52.235Z,9.93
2022-08-16T09:59:22.596Z,9.07
2022-08-16T10:01:51.704Z,8.40
2022-08-16T10:04:34.313Z,9.18
2022-08-16T10:07:15.068Z,8.05
2022-08-16T10:09:53.517Z,8.32
2022-08-16T10:12:42.702Z,9.32
2022-08-16T10:15:15.871Z,10.00
2022-08-16T10:17:45.720Z,9.90
2022-08-16T10:20:27.860Z,9.18
2022-08-16T10:23:00.841Z,9.98
2022-08-16T10:27:19.700Z,10.25
2022-08-16T10:28:28.941Z,11.18
2022-08-16T10:30:58.744Z,10.13
2022-08-16T10:33:27.256Z,10.30
2022-08-16T10:36:03.170Z,10.38
2022-08-16T10:38:33.161Z,9.83
2022-08-16T10:41:04.542Z,9.18
2022-08-16T10:43:31.431Z,10.35
2022-08-16T10:46:00.245Z,11.32
2022-08-16T10:48:28.851Z,10.88
2022-08-16T10:50:59.759Z,11.25
2022-08-16T10:53:33.140Z,13.45
2022-08-16T10:56:02.687Z,11.77
2022-08-16T10:58:34.494Z,12.38
2022-08-16T11:03:54.511Z,12.70
2022-08-16T11:06:27.815Z,14.90
2022-08-16T11:14:29.509Z,12.02
2022-08-16T11:17:10.698Z,10.27
2022-08-16T11:22:47.095Z,10.40
2022-08-16T11:26:07.769Z,10.20
2022-08-16T11:28:05.686Z,10.90
2022-08-16T11:30:38.989Z,9.27
2022-08-16T11:33:06.902Z,10.00
2022-08-16T11:38:47.381Z,9.82
2022-08-16T11:41:10.526Z,10.13
2022-08-16T11:43:40.423Z,10.35
2022-08-16T11:46:44.833Z,9.43
2022-08-16T11:48:57.074Z,8.88
2022-08-16T11:51:26.278Z,9.50
2022-08-16T11:53:53.199Z,9.40
2022-08-16T11:56:29.940Z,10.25
2022-08-16T11:59:08.070Z,11.40
2022-08-16T12:01:55.369Z,11.40
2022-08-16T12:04:22.185Z,10.10
2022-08-16T12:06:49.974Z,10.43
2022-08-16T12:09:20.127Z,11.35
2022-08-16T12:11:47.153Z,10.82
2022-08-16T12:14:19.786Z,10.27
2022-08-16T12:16:55.438Z,10.93
2022-08-16T12:19:33.762Z,12.38
2022-08-16T12:22:05.886Z,11.48
2022-08-16T12:24:51.118Z,12.15
2022-08-16T12:27:23.170Z,11.80
2022-08-16T12:29:54.084Z,12.35
2022-08-16T12:32:35.851Z,12.40
2022-08-16T12:35:08.877Z,13.23
2022-08-16T12:37:36.230Z,12.85
2022-08-16T12:40:04.910Z,13.45
2022-08-16T12:42:35.741Z,14.90
2022-08-16T12:45:09.670Z,14.70
2022-08-16T12:48:10.082Z,14.63
2022-08-16T12:50:41.421Z,14.13
2022-08-16T12:53:08.207Z,14.13
2022-08-16T12:55:41.999Z,13.57
2022-08-16T12:58:13.852Z,13.57
2022-08-16T13:00:58.877Z,15.10
2022-08-16T13:03:25.918Z,13.52
2022-08-16T13:05:56.296Z,13.65
2022-08-16T13:08:27.564Z,14.65
2022-08-16T13:10:57.313Z,13.95
2022-08-16T13:13:26.305Z,14.07
2022-08-16T13:15:56.896Z,13.13
2022-08-16T13:18:34.556Z,12.02
2022-08-16T13:21:06.784Z,12.85
2022-08-16T13:23:36.064Z,11.98
2022-08-16T13:26:10.010Z,13.02
2022-08-16T13:28:37.342Z,11.77
2022-08-16T13:31:04.380Z,11.05
2022-08-16T13:33:37.070Z,11.63
2022-08-16T13:36:17.053Z,11.55
2022-08-16T13:38:56.280Z,12.05
2022-08-16T13:41:29.948Z,10.10
2022-08-16T13:43:59.358Z,10.25
2022-08-16T13:46:26.693Z,10.90
2022-08-16T13:48:53.418Z,9.88
2022-08-16T13:51:20.582Z,10.70
2022-08-16T13:53:54.595Z,10.30
2022-08-16T13:56:26.044Z,10.90
2022-08-16T13:59:05.630Z,11.45
2022-08-16T14:01:32.956Z,10.10
2022-08-16T14:04:03.495Z,10.13
2022-08-16T14:06:31.201Z,9.77
2022-08-16T14:08:59.225Z,10.88
2022-08-16T14:11:34.334Z,11.77
2022-08-16T14:14:01.817Z,12.15
2022-08-16T14:16:34.101Z,12.65
2022-08-16T14:19:02.213Z,11.63
2022-08-16T14:21:35.038Z,12.68
2022-08-16T14:24:12.889Z,11.50
2022-08-16T14:26:49.910Z,10.77
2022-08-16T14:31:49.520Z,12.25
2022-08-16T14:34:16.610Z,12.35
2022-08-16T14:36:43.595Z,12.52
2022-08-16T14:39:10.234Z,14.13
2022-08-16T14:41:39.544Z,12.73
2022-08-16T14:44:07.571Z,12.70
2022-08-16T14:46:35.933Z,13.40
2022-08-16T14:49:02.623Z,13.27
2022-08-16T14:51:29.499Z,12.95
2022-08-16T14:53:59.639Z,14.10
2022-08-16T14:56:42.455Z,12.48
2022-08-16T14:59:10.768Z,12.05
2022-08-16T15:01:59.604Z,11.52
2022-08-16T15:04:36.882Z,12.43
2022-08-16T15:07:10.181Z,13.27
2022-08-16T15:09:44.512Z,13.48
2022-08-16T15:12:31.033Z,12.80
2022-08-16T15:15:01.711Z,13.25
2022-08-16T15:17:33.985Z,13.32
2022-08-16T15:20:08.422Z,13.68
2022-08-16T15:22:39.232Z,13.63
2022-08-16T15:25:10.849Z,12.35
2022-08-16T15:27:42.047Z,12.90
2022-08-16T15:30:57.153Z,11.70
2022-08-16T15:33:08.735Z,12.95
2022-08-16T15:35:38.812Z,11.88
2022-08-16T15:38:09.245Z,12.20
2022-08-16T15:40:37.208Z,12.18
2022-08-16T15:43:27.277Z,12.85
2022-08-16T15:46:54.658Z,13.50
2022-08-16T15:49:09.574Z,14.25
2022-08-16T15:51:36.954Z,15.45
2022-08-16T15:54:20.934Z,16.75
2022-08-16T15:56:55.196Z,13.27
2022-08-16T15:59:24.642Z,13.63
2022-08-16T16:01:55.919Z,14.52
2022-08-16T16:04:25.746Z,12.18
2022-08-16T16:06:54.879Z,13.25
2022-08-16T16:09:26.237Z,16.08
2022-08-16T16:12:16.389Z,14.88
2022-08-16T16:14:52.198Z,16.13
2022-08-16T16:17:18.766Z,19.30
2022-08-16T16:19:45.520Z,20.02
2022-08-16T16:22:16.444Z,18.85
2022-08-16T16:24:47.067Z,21.42
2022-08-16T16:27:14.107Z,24.08
2022-08-16T16:29:42.841Z,21.67
2022-08-16T16:32:13.782Z,23.60
2022-08-16T16:34:43.167Z,23.42
2022-08-16T16:37:10.255Z,22.98
2022-08-16T16:39:37.568Z,25.30
2022-08-16T16:42:05.272Z,29.80
2022-08-16T16:44:36.353Z,26.95
2022-08-16T16:47:04.206Z,24.45
2022-08-16T16:49:33.962Z,19.88
2022-08-16T16:52:06.780Z,21.13
2022-08-16T16:54:35.554Z,16.10
2022-08-16T16:57:03.087Z,16.55
2022-08-16T16:59:29.693Z,13.85
2022-08-16T17:02:40.936Z,13.18
2022-08-16T17:04:46.149Z,13.82
2022-08-16T17:07:14.373Z,12.68
2022-08-16T17:09:41.446Z,12.50
2022-08-16T17:12:10.176Z,13.70
2022-08-16T17:14:52.483Z,14.02
2022-08-16T17:17:19.077Z,12.93
2022-08-16T17:19:45.824Z,13.05
2022-08-16T17:22:19.789Z,13.55
2022-08-16T17:24:50.674Z,13.70
2022-08-16T17:27:32.932Z,14.45
2022-08-16T17:30:15.078Z,14.15
2022-08-16T17:32:50.538Z,13.48
2022-08-16T17:35:34.347Z,13.45
2022-08-16T17:38:04.810Z,12.85
2022-08-16T17:40:45.976Z,13.68
2022-08-16T17:43:28.465Z,14.00
2022-08-16T17:45:56.273Z,13.82
2022-08-16T17:48:23.022Z,14.82
2022-08-16T17:50:49.777Z,14.63
2022-08-16T17:53:21.817Z,17.02
2022-08-16T17:55:50.586Z,14.27
2022-08-16T17:58:23.687Z,13.52
2022-08-16T18:00:56.798Z,14.70
2022-08-16T18:04:06.937Z,15.20
2022-08-16T18:06:15.563Z,15.57
2022-08-16T18:08:42.748Z,14.10
2022-08-16T18:11:10.159Z,16.95
2022-08-16T18:13:43.037Z,17.75
2022-08-16T18:16:11.127Z,18.73
2022-08-16T18:18:37.866Z,19.05
2022-08-16T18:21:23.014Z,21.00
2022-08-16T18:23:49.639Z,24.25
2022-08-16T18:26:16.324Z,23.92
2022-08-16T18:28:42.982Z,23.70
2022-08-16T18:31:09.897Z,21.77
2022-08-16T18:33:43.553Z,19.58
2022-08-16T18:36:19.900Z,15.80
2022-08-16T18:38:48.485Z,18.48
2022-08-16T18:41:15.126Z,17.30
2022-08-16T18:44:22.446Z,17.55
2022-08-16T18:46:28.268Z,17.38
2022-08-16T18:48:54.882Z,19.42
2022-08-16T18:51:25.005Z,18.92
2022-08-16T18:53:52.370Z,24.52
2022-08-16T18:56:18.930Z,20.00
2022-08-16T18:58:45.583Z,19.85
2022-08-16T19:01:12.180Z,22.02
2022-08-16T19:03:38.830Z,21.52
2022-08-16T19:06:13.989Z,22.20
2022-08-16T19:08:43.657Z,23.30
2022-08-16T19:11:13.923Z,21.40
2022-08-16T19:13:45.090Z,23.30
2022-08-16T19:16:12.735Z,20.50
2022-08-16T19:18:39.765Z,19.73
2022-08-16T19:21:07.940Z,19.08
2022-08-16T19:23:37.223Z,15.40
2022-08-16T19:26:24.376Z,18.00
2022-08-16T19:28:58.386Z,16.58
2022-08-16T19:31:32.714Z,15.65
2022-08-16T19:34:00.464Z,14.55
2022-08-16T19:36:35.114Z,14.02
2022-08-16T19:39:06.193Z,16.80
2022-08-16T19:41:35.131Z,13.93
2022-08-16T19:44:01.800Z,12.60
2022-08-16T19:46:28.506Z,13.63
2022-08-16T19:48:55.104Z,14.95
2022-08-16T19:51:21.755Z,13.40
2022-08-16T19:53:48.390Z,14.18
2022-08-16T19:56:14.981Z,13.60
2022-08-16T19:59:02.064Z,14.15
2022-08-16T20:01:28.873Z,13.88
2022-08-16T20:03:55.777Z,13.90
2022-08-16T20:06:32.138Z,14.48
2022-08-16T20:09:05.518Z,14.35
2022-08-16T20:11:32.221Z,14.95
2022-08-16T20:13:59.442Z,13.55
2022-08-16T20:16:26.277Z,13.73
2022-08-16T20:18:52.898Z,14.30
2022-08-16T20:21:19.578Z,13.98
2022-08-16T20:23:46.390Z,13.40
2022-08-16T20:26:13.103Z,15.43
2022-08-16T20:28:52.497Z,15.98
2022-08-16T20:31:24.162Z,16.70
2022-08-16T20:33:52.490Z,15.93
2022-08-16T20:36:19.076Z,19.40
2022-08-16T20:38:47.710Z,17.73
2022-08-16T20:41:16.186Z,17.95
2022-08-16T20:43:43.102Z,19.13
2022-08-16T20:46:09.820Z,16.00
2022-08-16T20:48:36.494Z,15.95
2022-08-16T20:51:04.142Z,15.05
2022-08-16T20:53:30.792Z,12.23
2022-08-16T20:55:57.642Z,14.00
2022-08-16T20:58:24.237Z,12.60
2022-08-16T21:00:50.877Z,11.52
2022-08-16T21:03:17.482Z,10.65
2022-08-16T21:05:45.320Z,12.10
2022-08-16T21:08:50.068Z,10.77
2022-08-16T21:11:01.019Z,10.55
2022-08-16T21:13:30.724Z,11.60
2022-08-16T21:15:58.245Z,11.85
2022-08-16T21:18:25.151Z,10.30
2022-08-16T21:20:52.242Z,9.95
2022-08-16T21:23:19.021Z,9.98
2022-08-16T21:25:58.527Z,9.80
2022-08-16T21:28:40.921Z,9.75
2022-08-16T21:31:14.522Z,10.30
2022-08-16T21:33:42.552Z,10.43
2022-08-16T21:36:10.380Z,10.13
2022-08-16T21:38:37.050Z,10.55
2022-08-16T21:41:05.320Z,11.07
2022-08-16T21:43:33.460Z,10.48
2022-08-16T21:46:01.451Z,11.48
2022-08-16T21:48:33.498Z,10.20
2022-08-16T21:51:03.587Z,9.88
2022-08-16T21:53:30.578Z,11.05
2022-08-16T21:55:58.267Z,9.32
2022-08-16T21:58:25.449Z,10.40
2022-08-16T22:00:52.148Z,11.10
2022-08-16T22:03:19.190Z,11.10
2022-08-16T22:06:11.632Z,10.45
2022-08-16T22:08:34.218Z,9.65
2022-08-16T22:11:06.632Z,10.05
2022-08-16T22:13:35.008Z,10.48
2022-08-16T22:16:03.758Z,11.82
2022-08-16T22:18:30.362Z,9.98
2022-08-16T22:20:57.232Z,9.52
2022-08-16T22:23:26.211Z,9.18
2022-08-16T22:25:54.764Z,9.32
2022-08-16T22:28:22.774Z,9.48
2022-08-16T22:30:51.437Z,9.77
2022-08-16T22:33:21.471Z,9.73
2022-08-16T22:35:54.935Z,10.40
2022-08-16T22:38:54.299Z,10.05
2022-08-16T22:41:08.782Z,11.07
2022-08-16T22:43:35.347Z,11.40
2022-08-16T22:46:02.383Z,11.82
2022-08-16T22:48:29.055Z,11.57
2022-08-16T22:50:55.711Z,10.68
2022-08-16T22:53:22.553Z,12.57
2022-08-16T22:55:49.187Z,11.75
2022-08-16T22:58:15.764Z,10.82
2022-08-16T23:00:44.438Z,11.40
2022-08-16T23:03:14.438Z,10.98
2022-08-16T23:05:50.299Z,11.60
2022-08-16T23:08:38.393Z,11.63
2022-08-16T23:11:07.806Z,11.48
2022-08-16T23:13:34.440Z,12.30
2022-08-16T23:16:11.317Z,12.77
2022-08-16T23:18:39.670Z,11.55
2022-08-16T23:21:09.050Z,12.88
2022-08-16T23:23:36.899Z,12.43
2022-08-16T23:26:44.498Z,11.70
2022-08-16T23:28:50.711Z,13.15
2022-08-16T23:31:17.597Z,12.82
2022-08-16T23:33:44.360Z,12.52
2022-08-16T23:36:11.131Z,15.40
2022-08-16T23:38:39.587Z,12.85
2022-08-16T23:41:11.805Z,11.30
2022-08-16T23:43:43.187Z,12.43
2022-08-16T23:46:16.242Z,11.63
2022-08-16T23:49:58.302Z,11.45
2022-08-16T23:51:31.010Z,16.60
2022-08-16T23:53:57.577Z,15.40
2022-08-16T23:56:25.701Z,15.02
2022-08-16T23:58:54.549Z,18.90
